Cornwall, Canada
Current Conditions -  °F | °C
As of 6:00 PM on Wednesday 28 Jan 2015 (Local Time) from CYYG Reporting Station
Light Snow Light Snow  
Wind Chill:   Ceiling: 900
Heat Index: 21°   Visibility: 3mi
Dew Point: 19°   Wind: 17mph
Humidity: 93%   Direction: 350°N
Pressure: 29.74"   Gusts: 24mph
Location:  46.23°N, 63.22°W
Report Text: CYYG 282200Z 35015G21KT 3SM -FZDZ -SN BR DRSN OVC009 M06/M07 A2974 RMK SF8 SLP075
Loading
Personal Weather Stations






























Interactive Weather Map New forecast layout! Learn more

10-Day Weather Forecast

Advertisements
Track Severe Weather on mobile